sensor_id;sensor_type;location;lat;lon;timestamp;P1;durP1;ratioP1;P2;durP2;ratioP2
51194;SDS011;37259;49.972;19.850;2024-03-23T00:52:24;12.5;;;7.9;;
51194;SDS011;37259;49.972;19.850;2024-03-23T00:53:24;12.5;;;7.9;;
51194;SDS011;37259;49.972;19.850;2024-03-23T00:54:24;12.5;;;7.9;;
51194;SDS011;37259;49.972;19.850;2024-03-23T00:55:24;12.5;;;7.9;;
51194;SDS011;37259;49.972;19.850;2024-03-23T00:56:24;12.5;;;7.9;;
51194;SDS011;37259;49.972;19.850;2024-03-23T00:57:24;12.5;;;7.9;;
51194;SDS011;37259;49.972;19.850;2024-03-23T00:58:24;12.5;;;7.9;;
51194;SDS011;37259;49.972;19.850;2024-03-23T00:59:24;12.5;;;7.9;;
51194;SDS011;37259;49.972;19.850;2024-03-23T01:00:24;12.5;;;7.9;;
51194;SDS011;37259;49.972;19.850;2024-03-23T01:01:24;12.5;;;7.9;;
51194;SDS011;37259;49.972;19.850;2024-03-23T01:02:24;12.5;;;7.9;;
51194;SDS011;37259;49.972;19.850;2024-03-23T01:03:24;12.5;;;7.9;;
51194;SDS011;37259;49.972;19.850;2024-03-23T01:04:24;12.5;;;7.9;;
51194;SDS011;37259;49.972;19.850;2024-03-23T01:05:24;12.5;;;7.9;;
51194;SDS011;37259;49.972;19.850;2024-03-23T01:06:24;12.5;;;7.9;;
51194;SDS011;37259;49.972;19.850;2024-03-23T01:07:24;12.5;;;7.9;;
51194;SDS011;37259;49.972;19.850;2024-03-23T01:08:24;12.5;;;7.9;;
51194;SDS011;37259;49.972;19.850;2024-03-23T01:09:24;12.3;;;8.4;;
51194;SDS011;37259;49.972;19.850;2024-03-23T01:10:24;12.3;;;8.4;;
51194;SDS011;37259;49.972;19.850;2024-03-23T01:11:24;12.3;;;8.4;;
51194;SDS011;37259;49.972;19.850;2024-03-23T01:12:24;12.3;;;8.4;;
51194;SDS011;37259;49.972;19.850;2024-03-23T01:13:24;12.3;;;8.4;;
51194;SDS011;37259;49.972;19.850;2024-03-23T01:14:24;12.3;;;8.4;;
51194;SDS011;37259;49.972;19.850;2024-03-23T01:15:24;12.3;;;8.4;;
51194;SDS011;37259;49.972;19.850;2024-03-23T01:16:24;12.3;;;8.4;;
51194;SDS011;37259;49.972;19.850;2024-03-23T01:17:24;12.3;;;8.4;;
51194;SDS011;37259;49.972;19.850;2024-03-23T01:18:24;12.3;;;8.4;;
51194;SDS011;37259;49.972;19.850;2024-03-23T01:19:24;12.3;;;8.4;;
51194;SDS011;37259;49.972;19.850;2024-03-23T01:20:24;12.3;;;8.4;;
51194;SDS011;37259;49.972;19.850;2024-03-23T01:21:24;12.3;;;8.4;;
51194;SDS011;37259;49.972;19.850;2024-03-23T01:22:24;12.3;;;8.4;;
51194;SDS011;37259;49.972;19.850;2024-03-23T01:23:24;12.3;;;8.4;;
51194;SDS011;37259;49.972;19.850;2024-03-23T01:24:24;12.3;;;8.4;;
51194;SDS011;37259;49.972;19.850;2024-03-23T01:25:24;12.3;;;8.4;;
51194;SDS011;37259;49.972;19.850;2024-03-23T01:26:24;12.3;;;8.4;;
51194;SDS011;37259;49.972;19.850;2024-03-23T01:27:24;12.3;;;8.4;;
51194;SDS011;37259;49.972;19.850;2024-03-23T01:28:24;12.3;;;8.4;;
51194;SDS011;37259;49.972;19.850;2024-03-23T01:29:24;12.3;;;8.4;;
51194;SDS011;37259;49.972;19.850;2024-03-23T01:30:24;12.3;;;8.4;;
51194;SDS011;37259;49.972;19.850;2024-03-23T01:31:24;12.3;;;8.4;;
51194;SDS011;37259;49.972;19.850;2024-03-23T01:32:24;12.3;;;8.4;;
51194;SDS011;37259;49.972;19.850;2024-03-23T01:33:24;12.3;;;8.4;;
51194;SDS011;37259;49.972;19.850;2024-03-23T01:34:24;12.3;;;8.4;;
51194;SDS011;37259;49.972;19.850;2024-03-23T01:35:24;12.3;;;8.4;;
51194;SDS011;37259;49.972;19.850;2024-03-23T01:36:24;12.3;;;8.4;;
51194;SDS011;37259;49.972;19.850;2024-03-23T01:37:24;12.3;;;8.4;;
51194;SDS011;37259;49.972;19.850;2024-03-23T01:38:24;12.3;;;8.4;;
51194;SDS011;37259;49.972;19.850;2024-03-23T01:39:24;10.7;;;6.6;;
51194;SDS011;37259;49.972;19.850;2024-03-23T01:40:24;10.7;;;6.6;;
51194;SDS011;37259;49.972;19.850;2024-03-23T01:41:24;10.7;;;6.6;;
51194;SDS011;37259;49.972;19.850;2024-03-23T01:42:24;10.7;;;6.6;;
51194;SDS011;37259;49.972;19.850;2024-03-23T01:43:24;10.7;;;6.6;;
51194;SDS011;37259;49.972;19.850;2024-03-23T01:44:24;10.7;;;6.6;;
51194;SDS011;37259;49.972;19.850;2024-03-23T01:45:24;10.7;;;6.6;;
51194;SDS011;37259;49.972;19.850;2024-03-23T01:46:24;10.7;;;6.6;;
51194;SDS011;37259;49.972;19.850;2024-03-23T01:47:24;10.7;;;6.6;;
51194;SDS011;37259;49.972;19.850;2024-03-23T01:48:24;10.7;;;6.6;;
51194;SDS011;37259;49.972;19.850;2024-03-23T01:49:24;10.7;;;6.6;;
51194;SDS011;37259;49.972;19.850;2024-03-23T01:50:24;10.7;;;6.6;;
51194;SDS011;37259;49.972;19.850;2024-03-23T01:51:24;10.7;;;6.6;;
51194;SDS011;37259;49.972;19.850;2024-03-23T01:52:24;10.7;;;6.6;;
51194;SDS011;37259;49.972;19.850;2024-03-23T01:53:24;10.7;;;6.6;;
51194;SDS011;37259;49.972;19.850;2024-03-23T01:54:24;10.7;;;6.6;;
51194;SDS011;37259;49.972;19.850;2024-03-23T01:55:24;10.7;;;6.6;;
51194;SDS011;37259;49.972;19.850;2024-03-23T01:56:24;10.7;;;6.6;;
51194;SDS011;37259;49.972;19.850;2024-03-23T01:57:24;10.7;;;6.6;;
51194;SDS011;37259;49.972;19.850;2024-03-23T01:58:24;10.7;;;6.6;;
51194;SDS011;37259;49.972;19.850;2024-03-23T01:59:24;10.7;;;6.6;;
51194;SDS011;37259;49.972;19.850;2024-03-23T02:00:24;10.7;;;6.6;;
51194;SDS011;37259;49.972;19.850;2024-03-23T02:01:24;10.7;;;6.6;;
51194;SDS011;37259;49.972;19.850;2024-03-23T02:02:24;10.7;;;6.6;;
51194;SDS011;37259;49.972;19.850;2024-03-23T02:03:24;10.7;;;6.6;;
51194;SDS011;37259;49.972;19.850;2024-03-23T02:04:24;10.7;;;6.6;;
51194;SDS011;37259;49.972;19.850;2024-03-23T02:05:24;10.7;;;6.6;;
51194;SDS011;37259;49.972;19.850;2024-03-23T02:06:24;10.7;;;6.6;;
51194;SDS011;37259;49.972;19.850;2024-03-23T02:07:24;10.7;;;6.6;;
51194;SDS011;37259;49.972;19.850;2024-03-23T02:08:24;10.7;;;6.6;;
51194;SDS011;37259;49.972;19.850;2024-03-23T02:09:24;11.9;;;7.3;;
51194;SDS011;37259;49.972;19.850;2024-03-23T02:10:24;11.9;;;7.3;;
51194;SDS011;37259;49.972;19.850;2024-03-23T02:11:24;11.9;;;7.3;;
51194;SDS011;37259;49.972;19.850;2024-03-23T02:12:24;11.9;;;7.3;;
51194;SDS011;37259;49.972;19.850;2024-03-23T02:13:24;11.9;;;7.3;;
51194;SDS011;37259;49.972;19.850;2024-03-23T02:14:24;11.9;;;7.3;;
51194;SDS011;37259;49.972;19.850;2024-03-23T02:15:24;11.9;;;7.3;;
51194;SDS011;37259;49.972;19.850;2024-03-23T02:16:24;11.9;;;7.3;;
51194;SDS011;37259;49.972;19.850;2024-03-23T02:17:24;11.9;;;7.3;;
51194;SDS011;37259;49.972;19.850;2024-03-23T02:18:24;11.9;;;7.3;;
51194;SDS011;37259;49.972;19.850;2024-03-23T02:19:24;11.9;;;7.3;;
51194;SDS011;37259;49.972;19.850;2024-03-23T02:20:24;11.9;;;7.3;;
51194;SDS011;37259;49.972;19.850;2024-03-23T02:21:24;11.9;;;7.3;;
51194;SDS011;37259;49.972;19.850;2024-03-23T02:22:24;11.9;;;7.3;;
51194;SDS011;37259;49.972;19.850;2024-03-23T02:23:24;11.9;;;7.3;;
51194;SDS011;37259;49.972;19.850;2024-03-23T02:24:24;11.9;;;7.3;;
51194;SDS011;37259;49.972;19.850;2024-03-23T02:25:24;11.9;;;7.3;;
51194;SDS011;37259;49.972;19.850;2024-03-23T02:26:24;11.9;;;7.3;;
51194;SDS011;37259;49.972;19.850;2024-03-23T02:27:24;11.9;;;7.3;;
51194;SDS011;37259;49.972;19.850;2024-03-23T02:28:24;11.9;;;7.3;;
51194;SDS011;37259;49.972;19.850;2024-03-23T02:29:24;11.9;;;7.3;;
51194;SDS011;37259;49.972;19.850;2024-03-23T02:30:24;11.9;;;7.3;;
51194;SDS011;37259;49.972;19.850;2024-03-23T02:31:24;11.9;;;7.3;;
51194;SDS011;37259;49.972;19.850;2024-03-23T02:32:24;11.9;;;7.3;;
51194;SDS011;37259;49.972;19.850;2024-03-23T02:33:24;11.9;;;7.3;;
51194;SDS011;37259;49.972;19.850;2024-03-23T02:34:24;11.9;;;7.3;;
51194;SDS011;37259;49.972;19.850;2024-03-23T02:35:24;11.9;;;7.3;;
51194;SDS011;37259;49.972;19.850;2024-03-23T02:36:24;11.9;;;7.3;;
51194;SDS011;37259;49.972;19.850;2024-03-23T02:37:24;11.9;;;7.3;;
51194;SDS011;37259;49.972;19.850;2024-03-23T02:38:24;11.9;;;7.3;;
51194;SDS011;37259;49.972;19.850;2024-03-23T02:39:24;16.1;;;9.9;;
51194;SDS011;37259;49.972;19.850;2024-03-23T02:40:24;16.1;;;9.9;;
51194;SDS011;37259;49.972;19.850;2024-03-23T02:41:24;16.1;;;9.9;;
51194;SDS011;37259;49.972;19.850;2024-03-23T02:42:24;16.1;;;9.9;;
51194;SDS011;37259;49.972;19.850;2024-03-23T02:43:24;16.1;;;9.9;;
51194;SDS011;37259;49.972;19.850;2024-03-23T02:44:24;16.1;;;9.9;;
51194;SDS011;37259;49.972;19.850;2024-03-23T02:45:24;16.1;;;9.9;;
51194;SDS011;37259;49.972;19.850;2024-03-23T02:46:24;16.1;;;9.9;;
51194;SDS011;37259;49.972;19.850;2024-03-23T02:47:24;16.1;;;9.9;;
51194;SDS011;37259;49.972;19.850;2024-03-23T02:48:24;16.1;;;9.9;;
51194;SDS011;37259;49.972;19.850;2024-03-23T02:49:24;16.1;;;9.9;;
51194;SDS011;37259;49.972;19.850;2024-03-23T02:50:24;16.1;;;9.9;;
51194;SDS011;37259;49.972;19.850;2024-03-23T02:51:24;16.1;;;9.9;;
51194;SDS011;37259;49.972;19.850;2024-03-23T02:52:24;16.1;;;9.9;;
51194;SDS011;37259;49.972;19.850;2024-03-23T02:53:24;16.1;;;9.9;;
51194;SDS011;37259;49.972;19.850;2024-03-23T02:54:24;16.1;;;9.9;;
51194;SDS011;37259;49.972;19.850;2024-03-23T02:55:24;16.1;;;9.9;;
51194;SDS011;37259;49.972;19.850;2024-03-23T02:56:24;16.1;;;9.9;;
51194;SDS011;37259;49.972;19.850;2024-03-23T02:57:24;16.1;;;9.9;;
51194;SDS011;37259;49.972;19.850;2024-03-23T02:58:24;16.1;;;9.9;;
51194;SDS011;37259;49.972;19.850;2024-03-23T02:59:24;16.1;;;9.9;;
51194;SDS011;37259;49.972;19.850;2024-03-23T03:00:24;16.1;;;9.9;;
51194;SDS011;37259;49.972;19.850;2024-03-23T03:01:24;16.1;;;9.9;;
51194;SDS011;37259;49.972;19.850;2024-03-23T03:02:24;16.1;;;9.9;;
51194;SDS011;37259;49.972;19.850;2024-03-23T03:03:24;16.1;;;9.9;;
51194;SDS011;37259;49.972;19.850;2024-03-23T03:04:24;16.1;;;9.9;;
51194;SDS011;37259;49.972;19.850;2024-03-23T03:05:24;16.1;;;9.9;;
51194;SDS011;37259;49.972;19.850;2024-03-23T03:06:24;16.1;;;9.9;;
51194;SDS011;37259;49.972;19.850;2024-03-23T03:07:24;16.1;;;9.9;;
51194;SDS011;37259;49.972;19.850;2024-03-23T03:08:24;16.1;;;9.9;;
51194;SDS011;37259;49.972;19.850;2024-03-23T03:09:24;14.3;;;10.2;;
51194;SDS011;37259;49.972;19.850;2024-03-23T03:10:24;14.3;;;10.2;;
51194;SDS011;37259;49.972;19.850;2024-03-23T03:11:24;14.3;;;10.2;;
51194;SDS011;37259;49.972;19.850;2024-03-23T03:12:24;14.3;;;10.2;;
51194;SDS011;37259;49.972;19.850;2024-03-23T03:13:24;14.3;;;10.2;;
51194;SDS011;37259;49.972;19.850;2024-03-23T03:14:24;14.3;;;10.2;;
51194;SDS011;37259;49.972;19.850;2024-03-23T03:15:24;14.3;;;10.2;;
51194;SDS011;37259;49.972;19.850;2024-03-23T03:16:24;14.3;;;10.2;;
51194;SDS011;37259;49.972;19.850;2024-03-23T03:17:24;14.3;;;10.2;;
51194;SDS011;37259;49.972;19.850;2024-03-23T03:18:24;14.3;;;10.2;;
51194;SDS011;37259;49.972;19.850;2024-03-23T03:19:24;14.3;;;10.2;;
51194;SDS011;37259;49.972;19.850;2024-03-23T03:20:24;14.3;;;10.2;;
51194;SDS011;37259;49.972;19.850;2024-03-23T03:21:24;14.3;;;10.2;;
51194;SDS011;37259;49.972;19.850;2024-03-23T03:22:24;14.3;;;10.2;;
51194;SDS011;37259;49.972;19.850;2024-03-23T03:23:24;14.3;;;10.2;;
51194;SDS011;37259;49.972;19.850;2024-03-23T03:24:24;14.3;;;10.2;;
51194;SDS011;37259;49.972;19.850;2024-03-23T03:25:24;14.3;;;10.2;;
51194;SDS011;37259;49.972;19.850;2024-03-23T03:26:24;14.3;;;10.2;;
51194;SDS011;37259;49.972;19.850;2024-03-23T03:27:24;14.3;;;10.2;;
51194;SDS011;37259;49.972;19.850;2024-03-23T03:28:24;14.3;;;10.2;;
51194;SDS011;37259;49.972;19.850;2024-03-23T03:29:24;14.3;;;10.2;;
51194;SDS011;37259;49.972;19.850;2024-03-23T03:30:24;14.3;;;10.2;;
51194;SDS011;37259;49.972;19.850;2024-03-23T03:31:24;14.3;;;10.2;;
51194;SDS011;37259;49.972;19.850;2024-03-23T03:32:24;14.3;;;10.2;;
51194;SDS011;37259;49.972;19.850;2024-03-23T03:33:24;14.3;;;10.2;;
51194;SDS011;37259;49.972;19.850;2024-03-23T03:34:24;14.3;;;10.2;;
51194;SDS011;37259;49.972;19.850;2024-03-23T03:35:24;14.3;;;10.2;;
51194;SDS011;37259;49.972;19.850;2024-03-23T03:36:24;14.3;;;10.2;;
51194;SDS011;37259;49.972;19.850;2024-03-23T03:37:24;14.3;;;10.2;;
51194;SDS011;37259;49.972;19.850;2024-03-23T03:38:24;14.3;;;10.2;;
51194;SDS011;37259;49.972;19.850;2024-03-23T03:39:24;16;;;10.1;;
51194;SDS011;37259;49.972;19.850;2024-03-23T03:40:24;16;;;10.1;;
51194;SDS011;37259;49.972;19.850;2024-03-23T03:41:24;16;;;10.1;;
51194;SDS011;37259;49.972;19.850;2024-03-23T03:42:24;16;;;10.1;;
51194;SDS011;37259;49.972;19.850;2024-03-23T03:43:24;16;;;10.1;;
51194;SDS011;37259;49.972;19.850;2024-03-23T03:44:24;16;;;10.1;;
51194;SDS011;37259;49.972;19.850;2024-03-23T03:45:24;16;;;10.1;;
51194;SDS011;37259;49.972;19.850;2024-03-23T03:46:24;16;;;10.1;;
51194;SDS011;37259;49.972;19.850;2024-03-23T03:47:24;16;;;10.1;;
51194;SDS011;37259;49.972;19.850;2024-03-23T03:48:24;16;;;10.1;;
51194;SDS011;37259;49.972;19.850;2024-03-23T03:49:24;16;;;10.1;;
51194;SDS011;37259;49.972;19.850;2024-03-23T03:50:24;16;;;10.1;;
51194;SDS011;37259;49.972;19.850;2024-03-23T03:51:24;16;;;10.1;;
51194;SDS011;37259;49.972;19.850;2024-03-23T03:52:24;16;;;10.1;;
51194;SDS011;37259;49.972;19.850;2024-03-23T03:53:24;16;;;10.1;;
51194;SDS011;37259;49.972;19.850;2024-03-23T03:54:24;16;;;10.1;;
51194;SDS011;37259;49.972;19.850;2024-03-23T03:55:24;16;;;10.1;;
51194;SDS011;37259;49.972;19.850;2024-03-23T03:56:24;16;;;10.1;;
51194;SDS011;37259;49.972;19.850;2024-03-23T03:57:24;16;;;10.1;;
51194;SDS011;37259;49.972;19.850;2024-03-23T03:58:24;16;;;10.1;;
51194;SDS011;37259;49.972;19.850;2024-03-23T03:59:24;16;;;10.1;;
51194;SDS011;37259;49.972;19.850;2024-03-23T04:00:24;16;;;10.1;;
51194;SDS011;37259;49.972;19.850;2024-03-23T04:01:24;16;;;10.1;;
51194;SDS011;37259;49.972;19.850;2024-03-23T04:02:25;16;;;10.1;;
51194;SDS011;37259;49.972;19.850;2024-03-23T04:03:24;16;;;10.1;;
51194;SDS011;37259;49.972;19.850;2024-03-23T04:04:24;16;;;10.1;;
51194;SDS011;37259;49.972;19.850;2024-03-23T04:05:24;16;;;10.1;;
51194;SDS011;37259;49.972;19.850;2024-03-23T04:06:24;16;;;10.1;;
51194;SDS011;37259;49.972;19.850;2024-03-23T04:07:24;16;;;10.1;;
51194;SDS011;37259;49.972;19.850;2024-03-23T04:08:24;14.8;;;8.7;;
51194;SDS011;37259;49.972;19.850;2024-03-23T04:09:24;14.8;;;8.7;;
51194;SDS011;37259;49.972;19.850;2024-03-23T04:10:24;14.8;;;8.7;;
51194;SDS011;37259;49.972;19.850;2024-03-23T04:11:24;14.8;;;8.7;;
51194;SDS011;37259;49.972;19.850;2024-03-23T04:12:24;14.8;;;8.7;;
51194;SDS011;37259;49.972;19.850;2024-03-23T04:13:24;14.8;;;8.7;;
51194;SDS011;37259;49.972;19.850;2024-03-23T04:14:24;14.8;;;8.7;;
51194;SDS011;37259;49.972;19.850;2024-03-23T04:15:24;14.8;;;8.7;;
51194;SDS011;37259;49.972;19.850;2024-03-23T04:16:26;14.8;;;8.7;;
51194;SDS011;37259;49.972;19.850;2024-03-23T04:17:24;14.8;;;8.7;;
51194;SDS011;37259;49.972;19.850;2024-03-23T04:18:24;14.8;;;8.7;;
51194;SDS011;37259;49.972;19.850;2024-03-23T04:19:24;14.8;;;8.7;;
51194;SDS011;37259;49.972;19.850;2024-03-23T04:20:24;14.8;;;8.7;;
51194;SDS011;37259;49.972;19.850;2024-03-23T04:21:24;14.8;;;8.7;;
51194;SDS011;37259;49.972;19.850;2024-03-23T04:22:24;14.8;;;8.7;;
51194;SDS011;37259;49.972;19.850;2024-03-23T04:23:24;14.8;;;8.7;;
51194;SDS011;37259;49.972;19.850;2024-03-23T04:24:24;14.8;;;8.7;;
51194;SDS011;37259;49.972;19.850;2024-03-23T04:25:24;14.8;;;8.7;;
51194;SDS011;37259;49.972;19.850;2024-03-23T04:26:24;14.8;;;8.7;;
51194;SDS011;37259;49.972;19.850;2024-03-23T04:27:24;14.8;;;8.7;;
51194;SDS011;37259;49.972;19.850;2024-03-23T04:28:24;14.8;;;8.7;;
51194;SDS011;37259;49.972;19.850;2024-03-23T04:29:24;14.8;;;8.7;;
51194;SDS011;37259;49.972;19.850;2024-03-23T04:30:24;14.8;;;8.7;;
51194;SDS011;37259;49.972;19.850;2024-03-23T04:31:24;14.8;;;8.7;;
51194;SDS011;37259;49.972;19.850;2024-03-23T04:32:24;14.8;;;8.7;;
51194;SDS011;37259;49.972;19.850;2024-03-23T04:33:24;14.8;;;8.7;;
51194;SDS011;37259;49.972;19.850;2024-03-23T04:34:24;14.8;;;8.7;;
51194;SDS011;37259;49.972;19.850;2024-03-23T04:35:24;14.8;;;8.7;;
51194;SDS011;37259;49.972;19.850;2024-03-23T04:36:24;14.8;;;8.7;;
51194;SDS011;37259;49.972;19.850;2024-03-23T04:37:24;14.8;;;8.7;;
51194;SDS011;37259;49.972;19.850;2024-03-23T04:38:24;18.9;;;10.5;;
51194;SDS011;37259;49.972;19.850;2024-03-23T04:39:24;18.9;;;10.5;;
51194;SDS011;37259;49.972;19.850;2024-03-23T04:40:24;18.9;;;10.5;;
51194;SDS011;37259;49.972;19.850;2024-03-23T04:41:24;18.9;;;10.5;;
51194;SDS011;37259;49.972;19.850;2024-03-23T04:42:24;18.9;;;10.5;;
51194;SDS011;37259;49.972;19.850;2024-03-23T04:43:25;18.9;;;10.5;;
51194;SDS011;37259;49.972;19.850;2024-03-23T04:44:24;18.9;;;10.5;;
51194;SDS011;37259;49.972;19.850;2024-03-23T04:45:24;18.9;;;10.5;;
51194;SDS011;37259;49.972;19.850;2024-03-23T04:46:24;18.9;;;10.5;;
51194;SDS011;37259;49.972;19.850;2024-03-23T04:47:24;18.9;;;10.5;;
51194;SDS011;37259;49.972;19.850;2024-03-23T04:48:24;18.9;;;10.5;;
51194;SDS011;37259;49.972;19.850;2024-03-23T04:49:24;18.9;;;10.5;;
51194;SDS011;37259;49.972;19.850;2024-03-23T04:50:24;18.9;;;10.5;;
51194;SDS011;37259;49.972;19.850;2024-03-23T04:51:24;18.9;;;10.5;;
51194;SDS011;37259;49.972;19.850;2024-03-23T04:52:24;18.9;;;10.5;;
51194;SDS011;37259;49.972;19.850;2024-03-23T04:53:24;18.9;;;10.5;;
51194;SDS011;37259;49.972;19.850;2024-03-23T04:54:24;18.9;;;10.5;;
51194;SDS011;37259;49.972;19.850;2024-03-23T04:55:24;18.9;;;10.5;;
51194;SDS011;37259;49.972;19.850;2024-03-23T04:56:24;18.9;;;10.5;;
51194;SDS011;37259;49.972;19.850;2024-03-23T04:57:24;18.9;;;10.5;;
51194;SDS011;37259;49.972;19.850;2024-03-23T04:58:24;18.9;;;10.5;;
51194;SDS011;37259;49.972;19.850;2024-03-23T04:59:24;18.9;;;10.5;;
51194;SDS011;37259;49.972;19.850;2024-03-23T05:00:25;18.9;;;10.5;;
51194;SDS011;37259;49.972;19.850;2024-03-23T05:01:24;18.9;;;10.5;;
51194;SDS011;37259;49.972;19.850;2024-03-23T05:02:24;18.9;;;10.5;;
51194;SDS011;37259;49.972;19.850;2024-03-23T05:03:24;18.9;;;10.5;;
51194;SDS011;37259;49.972;19.850;2024-03-23T05:04:24;18.9;;;10.5;;
51194;SDS011;37259;49.972;19.850;2024-03-23T05:05:24;18.9;;;10.5;;
51194;SDS011;37259;49.972;19.850;2024-03-23T05:06:24;18.9;;;10.5;;
51194;SDS011;37259;49.972;19.850;2024-03-23T05:07:24;18.9;;;10.5;;
51194;SDS011;37259;49.972;19.850;2024-03-23T05:08:24;14.9;;;10.6;;
51194;SDS011;37259;49.972;19.850;2024-03-23T05:09:24;14.9;;;10.6;;
51194;SDS011;37259;49.972;19.850;2024-03-23T05:10:24;14.9;;;10.6;;
51194;SDS011;37259;49.972;19.850;2024-03-23T05:11:24;14.9;;;10.6;;
51194;SDS011;37259;49.972;19.850;2024-03-23T05:12:24;14.9;;;10.6;;
51194;SDS011;37259;49.972;19.850;2024-03-23T05:13:24;14.9;;;10.6;;
51194;SDS011;37259;49.972;19.850;2024-03-23T05:14:24;14.9;;;10.6;;
51194;SDS011;37259;49.972;19.850;2024-03-23T05:15:24;14.9;;;10.6;;
51194;SDS011;37259;49.972;19.850;2024-03-23T05:16:24;14.9;;;10.6;;
51194;SDS011;37259;49.972;19.850;2024-03-23T05:17:24;14.9;;;10.6;;
51194;SDS011;37259;49.972;19.850;2024-03-23T05:18:24;14.9;;;10.6;;
51194;SDS011;37259;49.972;19.850;2024-03-23T05:19:24;14.9;;;10.6;;
51194;SDS011;37259;49.972;19.850;2024-03-23T05:20:24;14.9;;;10.6;;
51194;SDS011;37259;49.972;19.850;2024-03-23T05:21:24;14.9;;;10.6;;
51194;SDS011;37259;49.972;19.850;2024-03-23T05:22:24;14.9;;;10.6;;
51194;SDS011;37259;49.972;19.850;2024-03-23T05:23:24;14.9;;;10.6;;
51194;SDS011;37259;49.972;19.850;2024-03-23T05:24:24;14.9;;;10.6;;
51194;SDS011;37259;49.972;19.850;2024-03-23T05:25:24;14.9;;;10.6;;
51194;SDS011;37259;49.972;19.850;2024-03-23T05:26:24;14.9;;;10.6;;
51194;SDS011;37259;49.972;19.850;2024-03-23T05:27:24;14.9;;;10.6;;
51194;SDS011;37259;49.972;19.850;2024-03-23T05:28:24;14.9;;;10.6;;
51194;SDS011;37259;49.972;19.850;2024-03-23T05:29:24;14.9;;;10.6;;
51194;SDS011;37259;49.972;19.850;2024-03-23T05:30:24;14.9;;;10.6;;
51194;SDS011;37259;49.972;19.850;2024-03-23T05:31:24;14.9;;;10.6;;
51194;SDS011;37259;49.972;19.850;2024-03-23T05:32:24;14.9;;;10.6;;
51194;SDS011;37259;49.972;19.850;2024-03-23T05:33:24;14.9;;;10.6;;
51194;SDS011;37259;49.972;19.850;2024-03-23T05:34:24;14.9;;;10.6;;
51194;SDS011;37259;49.972;19.850;2024-03-23T05:35:24;14.9;;;10.6;;
51194;SDS011;37259;49.972;19.850;2024-03-23T05:36:24;14.9;;;10.6;;
51194;SDS011;37259;49.972;19.850;2024-03-23T05:37:24;14.9;;;10.6;;
51194;SDS011;37259;49.972;19.850;2024-03-23T05:38:24;14.7;;;8.7;;
51194;SDS011;37259;49.972;19.850;2024-03-23T05:39:24;14.7;;;8.7;;
51194;SDS011;37259;49.972;19.850;2024-03-23T05:40:25;14.7;;;8.7;;
51194;SDS011;37259;49.972;19.850;2024-03-23T05:41:24;14.7;;;8.7;;
51194;SDS011;37259;49.972;19.850;2024-03-23T05:42:24;14.7;;;8.7;;
51194;SDS011;37259;49.972;19.850;2024-03-23T05:43:24;14.7;;;8.7;;
51194;SDS011;37259;49.972;19.850;2024-03-23T05:44:24;14.7;;;8.7;;
51194;SDS011;37259;49.972;19.850;2024-03-23T05:45:24;14.7;;;8.7;;
51194;SDS011;37259;49.972;19.850;2024-03-23T05:46:24;14.7;;;8.7;;
51194;SDS011;37259;49.972;19.850;2024-03-23T05:47:24;14.7;;;8.7;;
51194;SDS011;37259;49.972;19.850;2024-03-23T05:48:24;14.7;;;8.7;;
51194;SDS011;37259;49.972;19.850;2024-03-23T05:49:24;14.7;;;8.7;;
51194;SDS011;37259;49.972;19.850;2024-03-23T05:50:24;14.7;;;8.7;;
51194;SDS011;37259;49.972;19.850;2024-03-23T05:51:24;14.7;;;8.7;;
51194;SDS011;37259;49.972;19.850;2024-03-23T05:52:24;14.7;;;8.7;;
51194;SDS011;37259;49.972;19.850;2024-03-23T05:53:24;14.7;;;8.7;;
51194;SDS011;37259;49.972;19.850;2024-03-23T05:54:24;14.7;;;8.7;;
51194;SDS011;37259;49.972;19.850;2024-03-23T05:55:24;14.7;;;8.7;;
51194;SDS011;37259;49.972;19.850;2024-03-23T05:56:24;14.7;;;8.7;;
51194;SDS011;37259;49.972;19.850;2024-03-23T05:57:24;14.7;;;8.7;;
51194;SDS011;37259;49.972;19.850;2024-03-23T05:58:24;14.7;;;8.7;;
51194;SDS011;37259;49.972;19.850;2024-03-23T05:59:24;14.7;;;8.7;;
51194;SDS011;37259;49.972;19.850;2024-03-23T06:00:24;14.7;;;8.7;;
51194;SDS011;37259;49.972;19.850;2024-03-23T06:01:24;14.7;;;8.7;;
51194;SDS011;37259;49.972;19.850;2024-03-23T06:02:24;14.7;;;8.7;;
51194;SDS011;37259;49.972;19.850;2024-03-23T06:03:24;14.7;;;8.7;;
51194;SDS011;37259;49.972;19.850;2024-03-23T06:04:24;14.7;;;8.7;;
51194;SDS011;37259;49.972;19.850;2024-03-23T06:05:24;14.7;;;8.7;;
51194;SDS011;37259;49.972;19.850;2024-03-23T06:06:24;14.7;;;8.7;;
51194;SDS011;37259;49.972;19.850;2024-03-23T06:07:24;14.7;;;8.7;;
51194;SDS011;37259;49.972;19.850;2024-03-23T06:08:24;13.6;;;9.3;;
51194;SDS011;37259;49.972;19.850;2024-03-23T06:09:24;13.6;;;9.3;;
51194;SDS011;37259;49.972;19.850;2024-03-23T06:10:24;13.6;;;9.3;;
51194;SDS011;37259;49.972;19.850;2024-03-23T06:11:24;13.6;;;9.3;;
51194;SDS011;37259;49.972;19.850;2024-03-23T06:12:24;13.6;;;9.3;;
51194;SDS011;37259;49.972;19.850;2024-03-23T06:13:24;13.6;;;9.3;;
51194;SDS011;37259;49.972;19.850;2024-03-23T06:14:24;13.6;;;9.3;;
51194;SDS011;37259;49.972;19.850;2024-03-23T06:15:24;13.6;;;9.3;;
51194;SDS011;37259;49.972;19.850;2024-03-23T06:16:24;13.6;;;9.3;;
51194;SDS011;37259;49.972;19.850;2024-03-23T06:17:24;13.6;;;9.3;;
51194;SDS011;37259;49.972;19.850;2024-03-23T06:18:24;13.6;;;9.3;;
51194;SDS011;37259;49.972;19.850;2024-03-23T06:19:24;13.6;;;9.3;;
51194;SDS011;37259;49.972;19.850;2024-03-23T06:20:24;13.6;;;9.3;;
51194;SDS011;37259;49.972;19.850;2024-03-23T06:21:24;13.6;;;9.3;;
51194;SDS011;37259;49.972;19.850;2024-03-23T06:22:24;13.6;;;9.3;;
51194;SDS011;37259;49.972;19.850;2024-03-23T06:23:24;13.6;;;9.3;;
51194;SDS011;37259;49.972;19.850;2024-03-23T06:24:24;13.6;;;9.3;;
51194;SDS011;37259;49.972;19.850;2024-03-23T06:25:24;13.6;;;9.3;;
51194;SDS011;37259;49.972;19.850;2024-03-23T06:26:24;13.6;;;9.3;;
51194;SDS011;37259;49.972;19.850;2024-03-23T06:27:24;13.6;;;9.3;;
51194;SDS011;37259;49.972;19.850;2024-03-23T06:28:24;13.6;;;9.3;;
51194;SDS011;37259;49.972;19.850;2024-03-23T06:29:24;13.6;;;9.3;;
51194;SDS011;37259;49.972;19.850;2024-03-23T06:30:24;13.6;;;9.3;;
51194;SDS011;37259;49.972;19.850;2024-03-23T06:31:24;13.6;;;9.3;;
51194;SDS011;37259;49.972;19.850;2024-03-23T06:32:24;13.6;;;9.3;;
51194;SDS011;37259;49.972;19.850;2024-03-23T06:33:24;13.6;;;9.3;;
51194;SDS011;37259;49.972;19.850;2024-03-23T06:34:24;13.6;;;9.3;;
51194;SDS011;37259;49.972;19.850;2024-03-23T06:35:24;13.6;;;9.3;;
51194;SDS011;37259;49.972;19.850;2024-03-23T06:36:24;13.6;;;9.3;;
51194;SDS011;37259;49.972;19.850;2024-03-23T06:37:24;13.6;;;9.3;;
51194;SDS011;37259;49.972;19.850;2024-03-23T06:38:24;15.4;;;9.1;;
51194;SDS011;37259;49.972;19.850;2024-03-23T06:39:24;15.4;;;9.1;;
51194;SDS011;37259;49.972;19.850;2024-03-23T06:40:24;15.4;;;9.1;;
51194;SDS011;37259;49.972;19.850;2024-03-23T06:41:24;15.4;;;9.1;;
51194;SDS011;37259;49.972;19.850;2024-03-23T06:42:24;15.4;;;9.1;;
51194;SDS011;37259;49.972;19.850;2024-03-23T06:43:24;15.4;;;9.1;;
51194;SDS011;37259;49.972;19.850;2024-03-23T06:44:24;15.4;;;9.1;;
51194;SDS011;37259;49.972;19.850;2024-03-23T06:45:24;15.4;;;9.1;;
51194;SDS011;37259;49.972;19.850;2024-03-23T06:46:24;15.4;;;9.1;;
51194;SDS011;37259;49.972;19.850;2024-03-23T06:47:24;15.4;;;9.1;;
51194;SDS011;37259;49.972;19.850;2024-03-23T06:48:24;15.4;;;9.1;;
51194;SDS011;37259;49.972;19.850;2024-03-23T06:49:24;15.4;;;9.1;;
51194;SDS011;37259;49.972;19.850;2024-03-23T06:50:24;15.4;;;9.1;;
51194;SDS011;37259;49.972;19.850;2024-03-23T06:51:24;15.4;;;9.1;;
51194;SDS011;37259;49.972;19.850;2024-03-23T06:52:24;15.4;;;9.1;;